sensor_id;sensor_type;location;lat;lon;timestamp;P1;durP1;ratioP1;P2;durP2;ratioP2
30370;SDS011;17164;48.590;11.410;2023-04-22T00:02:04;3.77;;;2.23;;
30370;SDS011;17164;48.590;11.410;2023-04-22T00:04:30;5.17;;;2.70;;
30370;SDS011;17164;48.590;11.410;2023-04-22T00:06:56;4.73;;;2.60;;
30370;SDS011;17164;48.590;11.410;2023-04-22T00:09:22;3.80;;;2.53;;
30370;SDS011;17164;48.590;11.410;2023-04-22T00:11:48;4.70;;;3.00;;
30370;SDS011;17164;48.590;11.410;2023-04-22T00:14:13;3.47;;;2.60;;
30370;SDS011;17164;48.590;11.410;2023-04-22T00:16:39;6.87;;;2.87;;
30370;SDS011;17164;48.590;11.410;2023-04-22T00:19:04;5.50;;;3.40;;
30370;SDS011;17164;48.590;11.410;2023-04-22T00:21:30;5.60;;;2.73;;
30370;SDS011;17164;48.590;11.410;2023-04-22T00:23:56;4.27;;;2.87;;
30370;SDS011;17164;48.590;11.410;2023-04-22T00:26:22;5.63;;;2.80;;
30370;SDS011;17164;48.590;11.410;2023-04-22T00:28:48;4.50;;;2.87;;
30370;SDS011;17164;48.590;11.410;2023-04-22T00:31:14;4.60;;;3.03;;
30370;SDS011;17164;48.590;11.410;2023-04-22T00:33:39;4.93;;;3.27;;
30370;SDS011;17164;48.590;11.410;2023-04-22T00:36:05;6.27;;;2.87;;
30370;SDS011;17164;48.590;11.410;2023-04-22T00:38:31;5.83;;;3.90;;
30370;SDS011;17164;48.590;11.410;2023-04-22T00:40:57;4.60;;;3.43;;
30370;SDS011;17164;48.590;11.410;2023-04-22T00:43:23;5.73;;;3.53;;
30370;SDS011;17164;48.590;11.410;2023-04-22T00:45:49;6.23;;;3.10;;
30370;SDS011;17164;48.590;11.410;2023-04-22T00:48:15;6.37;;;3.70;;
30370;SDS011;17164;48.590;11.410;2023-04-22T00:50:40;7.03;;;3.80;;
30370;SDS011;17164;48.590;11.410;2023-04-22T00:53:06;5.90;;;3.53;;
30370;SDS011;17164;48.590;11.410;2023-04-22T00:55:32;7.00;;;3.97;;
30370;SDS011;17164;48.590;11.410;2023-04-22T00:57:59;4.80;;;3.50;;
30370;SDS011;17164;48.590;11.410;2023-04-22T01:00:27;5.23;;;3.10;;
30370;SDS011;17164;48.590;11.410;2023-04-22T01:02:53;4.80;;;3.20;;
30370;SDS011;17164;48.590;11.410;2023-04-22T01:05:19;6.33;;;2.67;;
30370;SDS011;17164;48.590;11.410;2023-04-22T01:07:45;4.00;;;2.80;;
30370;SDS011;17164;48.590;11.410;2023-04-22T01:10:11;5.83;;;2.70;;
30370;SDS011;17164;48.590;11.410;2023-04-22T01:12:37;4.80;;;3.33;;
30370;SDS011;17164;48.590;11.410;2023-04-22T01:15:03;4.63;;;3.07;;
30370;SDS011;17164;48.590;11.410;2023-04-22T01:17:29;4.30;;;2.90;;
30370;SDS011;17164;48.590;11.410;2023-04-22T01:19:58;4.50;;;2.80;;
30370;SDS011;17164;48.590;11.410;2023-04-22T01:22:27;4.03;;;2.73;;
30370;SDS011;17164;48.590;11.410;2023-04-22T01:24:59;3.67;;;2.43;;
30370;SDS011;17164;48.590;11.410;2023-04-22T01:27:25;4.83;;;2.83;;
30370;SDS011;17164;48.590;11.410;2023-04-22T01:29:51;6.37;;;3.17;;
30370;SDS011;17164;48.590;11.410;2023-04-22T01:32:17;3.40;;;2.33;;
30370;SDS011;17164;48.590;11.410;2023-04-22T01:34:43;4.73;;;2.60;;
30370;SDS011;17164;48.590;11.410;2023-04-22T01:37:09;5.90;;;2.87;;
30370;SDS011;17164;48.590;11.410;2023-04-22T01:39:34;5.10;;;3.10;;
30370;SDS011;17164;48.590;11.410;2023-04-22T01:42:01;5.57;;;3.00;;
30370;SDS011;17164;48.590;11.410;2023-04-22T01:44:27;5.77;;;3.40;;
30370;SDS011;17164;48.590;11.410;2023-04-22T01:46:53;8.27;;;3.43;;
30370;SDS011;17164;48.590;11.410;2023-04-22T01:49:18;4.70;;;3.23;;
30370;SDS011;17164;48.590;11.410;2023-04-22T01:51:45;7.60;;;3.60;;
30370;SDS011;17164;48.590;11.410;2023-04-22T01:54:10;5.20;;;3.53;;
30370;SDS011;17164;48.590;11.410;2023-04-22T01:56:36;7.53;;;3.43;;
30370;SDS011;17164;48.590;11.410;2023-04-22T01:59:04;5.07;;;3.27;;
30370;SDS011;17164;48.590;11.410;2023-04-22T02:01:30;4.57;;;3.00;;
30370;SDS011;17164;48.590;11.410;2023-04-22T02:03:56;6.57;;;4.00;;
30370;SDS011;17164;48.590;11.410;2023-04-22T02:06:21;4.77;;;3.00;;
30370;SDS011;17164;48.590;11.410;2023-04-22T02:08:47;5.73;;;3.60;;
30370;SDS011;17164;48.590;11.410;2023-04-22T02:11:12;4.63;;;3.20;;
30370;SDS011;17164;48.590;11.410;2023-04-22T02:13:38;8.60;;;3.23;;
30370;SDS011;17164;48.590;11.410;2023-04-22T02:16:05;7.50;;;3.20;;
30370;SDS011;17164;48.590;11.410;2023-04-22T02:18:32;6.07;;;3.63;;
30370;SDS011;17164;48.590;11.410;2023-04-22T02:20:57;5.17;;;3.37;;
30370;SDS011;17164;48.590;11.410;2023-04-22T02:23:23;5.70;;;3.70;;
30370;SDS011;17164;48.590;11.410;2023-04-22T02:25:50;8.87;;;3.47;;
30370;SDS011;17164;48.590;11.410;2023-04-22T02:28:16;5.70;;;3.90;;
30370;SDS011;17164;48.590;11.410;2023-04-22T02:30:44;6.43;;;3.90;;
30370;SDS011;17164;48.590;11.410;2023-04-22T02:33:09;7.27;;;4.63;;
30370;SDS011;17164;48.590;11.410;2023-04-22T02:35:35;5.90;;;3.80;;
30370;SDS011;17164;48.590;11.410;2023-04-22T02:38:01;7.83;;;4.13;;
30370;SDS011;17164;48.590;11.410;2023-04-22T02:40:27;4.40;;;3.37;;
30370;SDS011;17164;48.590;11.410;2023-04-22T02:42:52;7.97;;;3.23;;
30370;SDS011;17164;48.590;11.410;2023-04-22T02:45:18;4.33;;;3.20;;
30370;SDS011;17164;48.590;11.410;2023-04-22T02:47:43;5.07;;;3.33;;
30370;SDS011;17164;48.590;11.410;2023-04-22T02:50:09;4.37;;;2.90;;
30370;SDS011;17164;48.590;11.410;2023-04-22T02:52:35;3.60;;;2.63;;
30370;SDS011;17164;48.590;11.410;2023-04-22T02:55:00;5.63;;;3.40;;
30370;SDS011;17164;48.590;11.410;2023-04-22T02:57:26;7.53;;;3.40;;
30370;SDS011;17164;48.590;11.410;2023-04-22T02:59:52;3.77;;;2.87;;
30370;SDS011;17164;48.590;11.410;2023-04-22T03:02:17;5.50;;;3.90;;
30370;SDS011;17164;48.590;11.410;2023-04-22T03:04:43;6.10;;;3.83;;
30370;SDS011;17164;48.590;11.410;2023-04-22T03:07:09;6.47;;;3.57;;
30370;SDS011;17164;48.590;11.410;2023-04-22T03:09:35;5.67;;;3.57;;
30370;SDS011;17164;48.590;11.410;2023-04-22T03:12:00;6.57;;;3.47;;
30370;SDS011;17164;48.590;11.410;2023-04-22T03:14:26;7.20;;;4.00;;
30370;SDS011;17164;48.590;11.410;2023-04-22T03:16:52;4.97;;;3.30;;
30370;SDS011;17164;48.590;11.410;2023-04-22T03:19:18;7.33;;;3.80;;
30370;SDS011;17164;48.590;11.410;2023-04-22T03:21:43;4.93;;;3.43;;
30370;SDS011;17164;48.590;11.410;2023-04-22T03:24:09;5.00;;;3.47;;
30370;SDS011;17164;48.590;11.410;2023-04-22T03:26:35;7.00;;;3.60;;
30370;SDS011;17164;48.590;11.410;2023-04-22T03:29:00;7.30;;;3.87;;
30370;SDS011;17164;48.590;11.410;2023-04-22T03:31:26;5.23;;;3.60;;
30370;SDS011;17164;48.590;11.410;2023-04-22T03:33:51;6.00;;;3.40;;
30370;SDS011;17164;48.590;11.410;2023-04-22T03:36:17;5.43;;;3.60;;
30370;SDS011;17164;48.590;11.410;2023-04-22T03:38:43;7.33;;;3.20;;
30370;SDS011;17164;48.590;11.410;2023-04-22T03:41:08;5.00;;;3.40;;
30370;SDS011;17164;48.590;11.410;2023-04-22T03:43:34;6.07;;;3.73;;
30370;SDS011;17164;48.590;11.410;2023-04-22T03:46:00;6.57;;;4.17;;
30370;SDS011;17164;48.590;11.410;2023-04-22T03:48:25;7.20;;;3.90;;
30370;SDS011;17164;48.590;11.410;2023-04-22T03:50:53;5.93;;;3.80;;
30370;SDS011;17164;48.590;11.410;2023-04-22T03:53:18;7.17;;;3.30;;
30370;SDS011;17164;48.590;11.410;2023-04-22T03:55:44;6.63;;;3.90;;
30370;SDS011;17164;48.590;11.410;2023-04-22T03:58:09;7.17;;;4.13;;
30370;SDS011;17164;48.590;11.410;2023-04-22T04:00:35;5.93;;;3.53;;
30370;SDS011;17164;48.590;11.410;2023-04-22T04:03:01;5.37;;;3.70;;
30370;SDS011;17164;48.590;11.410;2023-04-22T04:05:26;5.87;;;4.10;;
30370;SDS011;17164;48.590;11.410;2023-04-22T04:07:52;6.23;;;3.87;;
30370;SDS011;17164;48.590;11.410;2023-04-22T04:10:18;5.87;;;3.90;;
30370;SDS011;17164;48.590;11.410;2023-04-22T04:12:43;7.13;;;4.00;;
30370;SDS011;17164;48.590;11.410;2023-04-22T04:15:09;5.70;;;3.60;;
30370;SDS011;17164;48.590;11.410;2023-04-22T04:17:35;6.50;;;3.80;;
30370;SDS011;17164;48.590;11.410;2023-04-22T04:20:01;7.60;;;4.27;;
30370;SDS011;17164;48.590;11.410;2023-04-22T04:22:27;8.53;;;3.80;;
30370;SDS011;17164;48.590;11.410;2023-04-22T04:24:53;11.00;;;4.40;;
30370;SDS011;17164;48.590;11.410;2023-04-22T04:27:20;4.67;;;3.47;;
30370;SDS011;17164;48.590;11.410;2023-04-22T04:29:47;8.40;;;3.57;;
30370;SDS011;17164;48.590;11.410;2023-04-22T04:32:13;6.67;;;3.57;;
30370;SDS011;17164;48.590;11.410;2023-04-22T04:34:39;6.83;;;3.70;;
30370;SDS011;17164;48.590;11.410;2023-04-22T04:37:06;6.07;;;3.50;;
30370;SDS011;17164;48.590;11.410;2023-04-22T04:39:32;6.70;;;3.83;;
30370;SDS011;17164;48.590;11.410;2023-04-22T04:41:57;5.43;;;3.60;;
30370;SDS011;17164;48.590;11.410;2023-04-22T04:44:24;6.83;;;3.63;;
30370;SDS011;17164;48.590;11.410;2023-04-22T04:46:55;5.50;;;3.40;;
30370;SDS011;17164;48.590;11.410;2023-04-22T04:49:21;7.50;;;3.80;;
30370;SDS011;17164;48.590;11.410;2023-04-22T04:51:47;4.80;;;3.43;;
30370;SDS011;17164;48.590;11.410;2023-04-22T04:54:13;5.60;;;3.47;;
30370;SDS011;17164;48.590;11.410;2023-04-22T04:56:39;5.40;;;3.27;;
30370;SDS011;17164;48.590;11.410;2023-04-22T04:59:05;9.10;;;3.80;;
30370;SDS011;17164;48.590;11.410;2023-04-22T05:01:31;7.07;;;3.87;;
30370;SDS011;17164;48.590;11.410;2023-04-22T05:03:56;7.93;;;4.20;;
30370;SDS011;17164;48.590;11.410;2023-04-22T05:06:22;9.43;;;4.60;;
30370;SDS011;17164;48.590;11.410;2023-04-22T05:08:48;8.50;;;4.43;;
30370;SDS011;17164;48.590;11.410;2023-04-22T05:11:13;7.03;;;4.10;;
30370;SDS011;17164;48.590;11.410;2023-04-22T05:13:39;7.90;;;3.63;;
30370;SDS011;17164;48.590;11.410;2023-04-22T05:16:04;9.60;;;4.27;;
30370;SDS011;17164;48.590;11.410;2023-04-22T05:18:30;7.07;;;4.43;;
30370;SDS011;17164;48.590;11.410;2023-04-22T05:20:56;6.27;;;3.97;;
30370;SDS011;17164;48.590;11.410;2023-04-22T05:23:25;6.87;;;4.20;;
30370;SDS011;17164;48.590;11.410;2023-04-22T05:25:50;6.47;;;4.23;;
30370;SDS011;17164;48.590;11.410;2023-04-22T05:28:16;6.37;;;4.10;;
30370;SDS011;17164;48.590;11.410;2023-04-22T05:30:42;7.70;;;3.93;;
30370;SDS011;17164;48.590;11.410;2023-04-22T05:33:07;9.60;;;4.50;;
30370;SDS011;17164;48.590;11.410;2023-04-22T05:35:33;8.90;;;4.40;;
30370;SDS011;17164;48.590;11.410;2023-04-22T05:37:59;8.90;;;5.67;;
30370;SDS011;17164;48.590;11.410;2023-04-22T05:40:25;12.27;;;6.53;;
30370;SDS011;17164;48.590;11.410;2023-04-22T05:42:51;12.63;;;6.97;;
30370;SDS011;17164;48.590;11.410;2023-04-22T05:45:17;7.40;;;5.93;;
30370;SDS011;17164;48.590;11.410;2023-04-22T05:47:42;8.60;;;5.53;;
30370;SDS011;17164;48.590;11.410;2023-04-22T05:50:08;8.40;;;4.80;;
30370;SDS011;17164;48.590;11.410;2023-04-22T05:52:34;8.50;;;4.80;;
30370;SDS011;17164;48.590;11.410;2023-04-22T05:54:59;7.63;;;5.07;;
30370;SDS011;17164;48.590;11.410;2023-04-22T05:57:25;8.77;;;4.93;;
30370;SDS011;17164;48.590;11.410;2023-04-22T05:59:51;7.17;;;4.60;;
30370;SDS011;17164;48.590;11.410;2023-04-22T06:02:16;8.63;;;4.73;;
30370;SDS011;17164;48.590;11.410;2023-04-22T06:04:42;10.97;;;5.10;;
30370;SDS011;17164;48.590;11.410;2023-04-22T06:07:08;6.23;;;4.50;;
30370;SDS011;17164;48.590;11.410;2023-04-22T06:09:33;8.70;;;5.10;;
30370;SDS011;17164;48.590;11.410;2023-04-22T06:11:59;9.37;;;5.10;;
30370;SDS011;17164;48.590;11.410;2023-04-22T06:14:26;8.60;;;4.83;;
30370;SDS011;17164;48.590;11.410;2023-04-22T06:16:51;9.10;;;5.27;;
30370;SDS011;17164;48.590;11.410;2023-04-22T06:19:18;5.87;;;4.37;;
30370;SDS011;17164;48.590;11.410;2023-04-22T06:21:43;7.00;;;4.43;;
30370;SDS011;17164;48.590;11.410;2023-04-22T06:24:09;7.17;;;4.43;;
30370;SDS011;17164;48.590;11.410;2023-04-22T06:26:35;9.70;;;5.53;;
30370;SDS011;17164;48.590;11.410;2023-04-22T06:29:01;10.50;;;6.07;;
30370;SDS011;17164;48.590;11.410;2023-04-22T06:31:29;9.43;;;5.57;;
30370;SDS011;17164;48.590;11.410;2023-04-22T06:33:56;8.77;;;5.53;;
30370;SDS011;17164;48.590;11.410;2023-04-22T06:36:22;8.90;;;5.63;;
30370;SDS011;17164;48.590;11.410;2023-04-22T06:38:48;10.33;;;5.73;;
30370;SDS011;17164;48.590;11.410;2023-04-22T06:41:13;12.73;;;5.60;;
30370;SDS011;17164;48.590;11.410;2023-04-22T06:43:40;13.40;;;6.00;;
30370;SDS011;17164;48.590;11.410;2023-04-22T06:46:06;8.73;;;5.57;;
30370;SDS011;17164;48.590;11.410;2023-04-22T06:48:31;9.10;;;5.73;;
30370;SDS011;17164;48.590;11.410;2023-04-22T06:50:57;9.33;;;5.37;;
30370;SDS011;17164;48.590;11.410;2023-04-22T06:53:22;7.27;;;4.60;;
30370;SDS011;17164;48.590;11.410;2023-04-22T06:55:48;11.27;;;5.60;;
30370;SDS011;17164;48.590;11.410;2023-04-22T06:58:14;6.30;;;4.83;;
30370;SDS011;17164;48.590;11.410;2023-04-22T07:00:39;11.97;;;5.13;;
30370;SDS011;17164;48.590;11.410;2023-04-22T07:03:05;6.33;;;4.80;;
30370;SDS011;17164;48.590;11.410;2023-04-22T07:05:31;8.77;;;4.83;;
30370;SDS011;17164;48.590;11.410;2023-04-22T07:07:56;7.60;;;5.37;;
30370;SDS011;17164;48.590;11.410;2023-04-22T07:10:23;9.53;;;4.93;;
30370;SDS011;17164;48.590;11.410;2023-04-22T07:12:48;10.47;;;5.40;;
30370;SDS011;17164;48.590;11.410;2023-04-22T07:15:15;9.77;;;5.77;;
30370;SDS011;17164;48.590;11.410;2023-04-22T07:17:41;8.47;;;5.23;;
30370;SDS011;17164;48.590;11.410;2023-04-22T07:20:07;10.57;;;4.80;;
30370;SDS011;17164;48.590;11.410;2023-04-22T07:22:33;6.80;;;4.17;;
30370;SDS011;17164;48.590;11.410;2023-04-22T07:24:59;9.80;;;5.23;;
30370;SDS011;17164;48.590;11.410;2023-04-22T07:27:24;8.17;;;5.60;;
30370;SDS011;17164;48.590;11.410;2023-04-22T07:29:50;7.57;;;4.57;;
30370;SDS011;17164;48.590;11.410;2023-04-22T07:32:15;5.70;;;4.13;;
30370;SDS011;17164;48.590;11.410;2023-04-22T07:34:41;7.77;;;4.33;;
30370;SDS011;17164;48.590;11.410;2023-04-22T07:37:06;6.77;;;4.07;;
30370;SDS011;17164;48.590;11.410;2023-04-22T07:39:33;4.93;;;3.20;;
30370;SDS011;17164;48.590;11.410;2023-04-22T07:41:59;6.30;;;3.87;;
30370;SDS011;17164;48.590;11.410;2023-04-22T07:44:26;6.10;;;3.53;;
30370;SDS011;17164;48.590;11.410;2023-04-22T07:46:51;5.97;;;3.43;;
30370;SDS011;17164;48.590;11.410;2023-04-22T07:49:17;5.47;;;3.40;;
30370;SDS011;17164;48.590;11.410;2023-04-22T07:51:44;14.37;;;4.70;;
30370;SDS011;17164;48.590;11.410;2023-04-22T07:54:09;12.33;;;4.70;;
30370;SDS011;17164;48.590;11.410;2023-04-22T07:56:35;5.30;;;2.93;;
30370;SDS011;17164;48.590;11.410;2023-04-22T07:59:01;5.50;;;2.63;;
30370;SDS011;17164;48.590;11.410;2023-04-22T08:01:27;4.37;;;2.47;;
30370;SDS011;17164;48.590;11.410;2023-04-22T08:03:53;4.37;;;2.23;;
30370;SDS011;17164;48.590;11.410;2023-04-22T08:06:18;2.87;;;1.80;;
30370;SDS011;17164;48.590;11.410;2023-04-22T08:08:44;5.30;;;2.43;;
30370;SDS011;17164;48.590;11.410;2023-04-22T08:11:10;4.57;;;2.27;;
30370;SDS011;17164;48.590;11.410;2023-04-22T08:13:35;5.37;;;2.50;;
30370;SDS011;17164;48.590;11.410;2023-04-22T08:16:01;3.80;;;2.00;;
30370;SDS011;17164;48.590;11.410;2023-04-22T08:18:27;3.37;;;1.80;;
30370;SDS011;17164;48.590;11.410;2023-04-22T08:20:53;4.87;;;2.00;;
30370;SDS011;17164;48.590;11.410;2023-04-22T08:23:19;7.43;;;2.23;;
30370;SDS011;17164;48.590;11.410;2023-04-22T08:25:45;7.40;;;2.07;;
30370;SDS011;17164;48.590;11.410;2023-04-22T08:28:11;4.70;;;1.83;;
30370;SDS011;17164;48.590;11.410;2023-04-22T08:30:37;3.07;;;1.90;;
30370;SDS011;17164;48.590;11.410;2023-04-22T08:33:03;3.50;;;2.00;;
30370;SDS011;17164;48.590;11.410;2023-04-22T08:35:28;4.33;;;2.37;;
30370;SDS011;17164;48.590;11.410;2023-04-22T08:37:54;5.13;;;1.80;;
30370;SDS011;17164;48.590;11.410;2023-04-22T08:40:20;2.73;;;2.13;;
30370;SDS011;17164;48.590;11.410;2023-04-22T08:42:46;4.13;;;2.07;;
30370;SDS011;17164;48.590;11.410;2023-04-22T08:45:12;3.63;;;2.03;;
30370;SDS011;17164;48.590;11.410;2023-04-22T08:47:38;7.70;;;2.30;;
30370;SDS011;17164;48.590;11.410;2023-04-22T08:50:05;3.83;;;1.90;;
30370;SDS011;17164;48.590;11.410;2023-04-22T08:52:33;2.53;;;1.63;;
30370;SDS011;17164;48.590;11.410;2023-04-22T08:54:59;5.93;;;2.00;;
30370;SDS011;17164;48.590;11.410;2023-04-22T08:57:24;6.33;;;1.80;;
30370;SDS011;17164;48.590;11.410;2023-04-22T08:59:50;4.33;;;2.00;;
30370;SDS011;17164;48.590;11.410;2023-04-22T09:02:20;4.13;;;1.87;;
30370;SDS011;17164;48.590;11.410;2023-04-22T09:04:48;3.23;;;1.80;;
30370;SDS011;17164;48.590;11.410;2023-04-22T09:07:26;6.83;;;1.60;;
30370;SDS011;17164;48.590;11.410;2023-04-22T09:09:54;3.40;;;1.50;;
30370;SDS011;17164;48.590;11.410;2023-04-22T09:12:20;2.70;;;1.57;;
30370;SDS011;17164;48.590;11.410;2023-04-22T09:14:46;3.67;;;1.47;;
30370;SDS011;17164;48.590;11.410;2023-04-22T09:17:16;3.50;;;1.73;;
30370;SDS011;17164;48.590;11.410;2023-04-22T09:19:43;2.40;;;1.43;;
30370;SDS011;17164;48.590;11.410;2023-04-22T09:22:10;3.33;;;1.70;;
30370;SDS011;17164;48.590;11.410;2023-04-22T09:24:40;3.40;;;1.67;;
30370;SDS011;17164;48.590;11.410;2023-04-22T09:27:15;2.40;;;1.50;;
30370;SDS011;17164;48.590;11.410;2023-04-22T09:29:48;4.87;;;1.70;;
30370;SDS011;17164;48.590;11.410;2023-04-22T09:32:15;3.47;;;1.37;;
30370;SDS011;17164;48.590;11.410;2023-04-22T09:34:48;3.37;;;1.47;;
30370;SDS011;17164;48.590;11.410;2023-04-22T09:37:19;4.43;;;1.27;;
30370;SDS011;17164;48.590;11.410;2023-04-22T09:39:53;1.70;;;1.20;;
30370;SDS011;17164;48.590;11.410;2023-04-22T09:42:19;3.17;;;1.20;;
30370;SDS011;17164;48.590;11.410;2023-04-22T09:44:49;3.43;;;1.50;;
30370;SDS011;17164;48.590;11.410;2023-04-22T09:47:16;2.63;;;1.30;;
30370;SDS011;17164;48.590;11.410;2023-04-22T09:49:45;2.03;;;1.20;;
30370;SDS011;17164;48.590;11.410;2023-04-22T09:52:19;2.97;;;1.43;;
30370;SDS011;17164;48.590;11.410;2023-04-22T09:54:50;2.20;;;1.40;;
30370;SDS011;17164;48.590;11.410;2023-04-22T09:57:16;1.70;;;1.27;;
30370;SDS011;17164;48.590;11.410;2023-04-22T09:59:42;1.90;;;1.20;;
30370;SDS011;17164;48.590;11.410;2023-04-22T10:02:08;2.40;;;1.10;;
30370;SDS011;17164;48.590;11.410;2023-04-22T10:04:33;4.13;;;1.27;;
30370;SDS011;17164;48.590;11.410;2023-04-22T10:06:59;3.27;;;1.23;;
30370;SDS011;17164;48.590;11.410;2023-04-22T10:09:26;0.90;;;0.80;;
30370;SDS011;17164;48.590;11.410;2023-04-22T10:11:53;1.50;;;1.10;;
30370;SDS011;17164;48.590;11.410;2023-04-22T10:14:21;2.47;;;0.97;;
30370;SDS011;17164;48.590;11.410;2023-04-22T10:16:47;1.23;;;1.00;;
30370;SDS011;17164;48.590;11.410;2023-04-22T10:19:18;0.90;;;0.70;;
30370;SDS011;17164;48.590;11.410;2023-04-22T10:21:46;2.53;;;1.10;;
30370;SDS011;17164;48.590;11.410;2023-04-22T10:24:14;1.70;;;1.10;;
30370;SDS011;17164;48.590;11.410;2023-04-22T10:26:49;4.17;;;1.30;;
30370;SDS011;17164;48.590;11.410;2023-04-22T10:29:18;2.80;;;1.10;;
30370;SDS011;17164;48.590;11.410;2023-04-22T10:31:50;1.50;;;1.00;;
30370;SDS011;17164;48.590;11.410;2023-04-22T10:34:27;1.70;;;1.00;;
30370;SDS011;17164;48.590;11.410;2023-04-22T10:37:11;1.77;;;1.20;;
30370;SDS011;17164;48.590;11.410;2023-04-22T10:39:39;0.80;;;0.80;;
30370;SDS011;17164;48.590;11.410;2023-04-22T10:42:07;2.07;;;1.00;;
30370;SDS011;17164;48.590;11.410;2023-04-22T10:44:45;3.07;;;1.03;;
30370;SDS011;17164;48.590;11.410;2023-04-22T10:47:28;3.60;;;1.40;;
30370;SDS011;17164;48.590;11.410;2023-04-22T10:52:44;3.47;;;1.40;;
30370;SDS011;17164;48.590;11.410;2023-04-22T10:55:12;1.57;;;1.00;;
30370;SDS011;17164;48.590;11.410;2023-04-22T10:57:44;2.73;;;1.40;;
30370;SDS011;17164;48.590;11.410;2023-04-22T11:03:07;3.13;;;1.23;;
30370;SDS011;17164;48.590;11.410;2023-04-22T11:05:35;2.00;;;1.20;;
30370;SDS011;17164;48.590;11.410;2023-04-22T11:08:05;2.77;;;1.40;;
30370;SDS011;17164;48.590;11.410;2023-04-22T11:10:36;2.27;;;0.90;;
30370;SDS011;17164;48.590;11.410;2023-04-22T11:13:08;2.07;;;0.90;;
30370;SDS011;17164;48.590;11.410;2023-04-22T11:15:37;1.33;;;0.90;;
30370;SDS011;17164;48.590;11.410;2023-04-22T11:18:07;6.13;;;3.03;;
30370;SDS011;17164;48.590;11.410;2023-04-22T11:20:53;6.50;;;3.20;;
30370;SDS011;17164;48.590;11.410;2023-04-22T11:23:24;5.83;;;2.40;;
30370;SDS011;17164;48.590;11.410;2023-04-22T11:25:54;4.63;;;2.17;;
30370;SDS011;17164;48.590;11.410;2023-04-22T11:28:21;1.63;;;1.10;;
30370;SDS011;17164;48.590;11.410;2023-04-22T11:30:47;7.10;;;2.27;;
30370;SDS011;17164;48.590;11.410;2023-04-22T11:33:14;1.93;;;1.17;;
30370;SDS011;17164;48.590;11.410;2023-04-22T11:35:40;1.70;;;1.00;;
30370;SDS011;17164;48.590;11.410;2023-04-22T11:38:07;2.33;;;1.30;;
30370;SDS011;17164;48.590;11.410;2023-04-22T11:40:37;6.13;;;1.87;;
30370;SDS011;17164;48.590;11.410;2023-04-22T11:43:04;1.90;;;0.97;;
30370;SDS011;17164;48.590;11.410;2023-04-22T11:45:32;3.13;;;1.00;;
30370;SDS011;17164;48.590;11.410;2023-04-22T11:47:59;3.57;;;1.57;;
30370;SDS011;17164;48.590;11.410;2023-04-22T11:50:26;2.33;;;1.40;;
30370;SDS011;17164;48.590;11.410;2023-04-22T11:52:54;2.10;;;1.30;;
30370;SDS011;17164;48.590;11.410;2023-04-22T11:58:18;3.40;;;1.70;;
30370;SDS011;17164;48.590;11.410;2023-04-22T12:00:49;7.90;;;1.20;;
30370;SDS011;17164;48.590;11.410;2023-04-22T12:03:19;2.40;;;1.20;;
30370;SDS011;17164;48.590;11.410;2023-04-22T12:05:52;1.80;;;0.90;;
30370;SDS011;17164;48.590;11.410;2023-04-22T12:08:20;1.60;;;1.07;;
30370;SDS011;17164;48.590;11.410;2023-04-22T12:13:17;2.30;;;1.00;;
30370;SDS011;17164;48.590;11.410;2023-04-22T12:15:44;1.70;;;0.93;;
30370;SDS011;17164;48.590;11.410;2023-04-22T12:18:10;0.93;;;0.77;;
30370;SDS011;17164;48.590;11.410;2023-04-22T12:20:37;2.37;;;0.97;;
30370;SDS011;17164;48.590;11.410;2023-04-22T12:23:04;3.67;;;1.03;;
30370;SDS011;17164;48.590;11.410;2023-04-22T12:25:30;1.33;;;0.87;;
30370;SDS011;17164;48.590;11.410;2023-04-22T12:27:58;4.03;;;1.07;;
30370;SDS011;17164;48.590;11.410;2023-04-22T12:30:24;6.60;;;1.13;;
30370;SDS011;17164;48.590;11.410;2023-04-22T12:32:50;1.60;;;1.00;;
30370;SDS011;17164;48.590;11.410;2023-04-22T12:35:16;1.67;;;1.00;;
30370;SDS011;17164;48.590;11.410;2023-04-22T12:37:42;1.10;;;1.00;;
30370;SDS011;17164;48.590;11.410;2023-04-22T12:40:07;1.73;;;0.80;;
30370;SDS011;17164;48.590;11.410;2023-04-22T12:42:34;2.63;;;0.97;;
30370;SDS011;17164;48.590;11.410;2023-04-22T12:45:00;3.37;;;1.10;;
30370;SDS011;17164;48.590;11.410;2023-04-22T12:47:26;1.10;;;0.77;;
30370;SDS011;17164;48.590;11.410;2023-04-22T12:49:51;1.13;;;0.60;;
30370;SDS011;17164;48.590;11.410;2023-04-22T12:52:17;1.47;;;1.00;;
30370;SDS011;17164;48.590;11.410;2023-04-22T12:54:43;1.53;;;0.80;;
30370;SDS011;17164;48.590;11.410;2023-04-22T12:57:08;1.43;;;0.83;;
30370;SDS011;17164;48.590;11.410;2023-04-22T12:59:34;3.27;;;0.80;;
30370;SDS011;17164;48.590;11.410;2023-04-22T13:01:59;1.80;;;0.80;;
30370;SDS011;17164;48.590;11.410;2023-04-22T13:04:25;1.27;;;0.80;;
30370;SDS011;17164;48.590;11.410;2023-04-22T13:06:51;4.73;;;1.00;;
30370;SDS011;17164;48.590;11.410;2023-04-22T13:09:21;1.73;;;0.90;;
30370;SDS011;17164;48.590;11.410;2023-04-22T13:11:47;1.57;;;0.93;;
30370;SDS011;17164;48.590;11.410;2023-04-22T13:14:13;2.13;;;0.90;;
30370;SDS011;17164;48.590;11.410;2023-04-22T13:16:39;1.53;;;0.83;;
30370;SDS011;17164;48.590;11.410;2023-04-22T13:19:05;1.30;;;1.00;;
30370;SDS011;17164;48.590;11.410;2023-04-22T13:21:30;1.90;;;0.90;;
30370;SDS011;17164;48.590;11.410;2023-04-22T13:23:56;1.13;;;0.83;;
30370;SDS011;17164;48.590;11.410;2023-04-22T13:26:22;2.00;;;0.97;;
30370;SDS011;17164;48.590;11.410;2023-04-22T13:28:47;1.47;;;0.80;;
30370;SDS011;17164;48.590;11.410;2023-04-22T13:31:13;1.50;;;1.20;;
30370;SDS011;17164;48.590;11.410;2023-04-22T13:33:39;4.00;;;1.10;;
30370;SDS011;17164;48.590;11.410;2023-04-22T13:36:04;21.37;;;1.80;;
30370;SDS011;17164;48.590;11.410;2023-04-22T13:38:30;1.73;;;0.90;;
30370;SDS011;17164;48.590;11.410;2023-04-22T13:40:56;7.53;;;1.20;;
30370;SDS011;17164;48.590;11.410;2023-04-22T13:43:21;2.43;;;1.00;;
30370;SDS011;17164;48.590;11.410;2023-04-22T13:45:47;6.60;;;1.00;;
30370;SDS011;17164;48.590;11.410;2023-04-22T13:48:13;1.17;;;0.93;;
30370;SDS011;17164;48.590;11.410;2023-04-22T13:50:40;2.93;;;1.10;;
30370;SDS011;17164;48.590;11.410;2023-04-22T13:53:07;2.97;;;1.03;;
30370;SDS011;17164;48.590;11.410;2023-04-22T13:55:34;1.10;;;0.80;;
30370;SDS011;17164;48.590;11.410;2023-04-22T13:58:01;3.97;;;1.47;;
30370;SDS011;17164;48.590;11.410;2023-04-22T14:00:26;2.97;;;0.90;;
30370;SDS011;17164;48.590;11.410;2023-04-22T14:02:52;2.40;;;0.70;;
30370;SDS011;17164;48.590;11.410;2023-04-22T14:05:18;1.50;;;0.80;;
30370;SDS011;17164;48.590;11.410;2023-04-22T14:07:44;0.90;;;0.70;;
30370;SDS011;17164;48.590;11.410;2023-04-22T14:10:09;3.00;;;1.17;;
30370;SDS011;17164;48.590;11.410;2023-04-22T14:12:37;1.30;;;0.97;;
30370;SDS011;17164;48.590;11.410;2023-04-22T14:15:03;0.87;;;0.80;;
30370;SDS011;17164;48.590;11.410;2023-04-22T14:17:30;1.80;;;1.00;;
30370;SDS011;17164;48.590;11.410;2023-04-22T14:19:56;2.17;;;1.10;;
30370;SDS011;17164;48.590;11.410;2023-04-22T14:22:22;5.60;;;1.23;;
30370;SDS011;17164;48.590;11.410;2023-04-22T14:24:47;4.43;;;0.70;;
30370;SDS011;17164;48.590;11.410;2023-04-22T14:27:13;2.13;;;1.10;;
30370;SDS011;17164;48.590;11.410;2023-04-22T14:29:39;2.10;;;0.97;;
30370;SDS011;17164;48.590;11.410;2023-04-22T14:32:05;4.97;;;0.90;;
30370;SDS011;17164;48.590;11.410;2023-04-22T14:34:30;1.40;;;0.70;;
30370;SDS011;17164;48.590;11.410;2023-04-22T14:36:56;2.67;;;1.00;;
30370;SDS011;17164;48.590;11.410;2023-04-22T14:39:22;2.53;;;1.07;;
30370;SDS011;17164;48.590;11.410;2023-04-22T14:41:47;0.87;;;0.67;;